createdAt,value
2022-10-17T00:01:08.257Z,17.35
2022-10-17T00:06:12.936Z,12.95
2022-10-17T00:11:18.848Z,15.95
2022-10-17T00:16:29.019Z,11.30
2022-10-17T00:21:30.904Z,12.00
2022-10-17T00:26:32.614Z,12.60
2022-10-17T00:31:35.570Z,10.63
2022-10-17T00:36:37.575Z,12.70
2022-10-17T00:41:39.429Z,12.95
2022-10-17T00:46:40.944Z,16.67
2022-10-17T00:51:50.070Z,9.02
2022-10-17T00:56:52.455Z,14.32
2022-10-17T01:02:01.901Z,6.38
2022-10-17T01:07:03.358Z,11.05
2022-10-17T01:12:14.057Z,8.93
2022-10-17T01:17:31.658Z,10.35
2022-10-17T01:22:41.615Z,15.20
2022-10-17T01:27:42.952Z,11.15
2022-10-17T01:32:55.112Z,14.60
2022-10-17T01:38:10.265Z,13.63
2022-10-17T01:43:45.205Z,11.55
2022-10-17T01:48:46.753Z,11.70
2022-10-17T01:54:00.866Z,10.95
2022-10-17T01:59:15.039Z,13.52
2022-10-17T02:04:16.531Z,9.20
2022-10-17T02:09:20.860Z,15.82
2022-10-17T02:14:41.016Z,13.90
2022-10-17T02:20:16.302Z,11.02
2022-10-17T02:25:28.032Z,9.60
2022-10-17T02:30:41.835Z,10.23
2022-10-17T02:35:47.758Z,16.33
2022-10-17T02:40:51.500Z,14.80
2022-10-17T02:45:53.980Z,10.70
2022-10-17T02:51:25.820Z,11.80
2022-10-17T02:56:30.884Z,7.32
2022-10-17T03:01:32.624Z,10.73
2022-10-17T03:06:34.126Z,5.75
2022-10-17T03:11:35.532Z,9.13
2022-10-17T03:16:36.991Z,4.25
2022-10-17T03:21:38.474Z,14.05
2022-10-17T03:26:39.968Z,7.65
2022-10-17T03:31:41.448Z,10.10
2022-10-17T03:36:43.544Z,7.13
2022-10-17T03:41:44.952Z,14.07
2022-10-17T03:46:46.512Z,6.35
2022-10-17T03:51:47.957Z,12.10
2022-10-17T03:56:49.509Z,11.25
2022-10-17T04:01:50.980Z,9.05
2022-10-17T04:06:52.395Z,5.10
2022-10-17T04:11:53.818Z,8.77
2022-10-17T04:16:55.324Z,8.98
2022-10-17T04:21:56.770Z,4.00
2022-10-17T04:26:58.269Z,12.23
2022-10-17T04:31:59.746Z,5.57
2022-10-17T04:37:01.179Z,7.55
2022-10-17T04:42:02.631Z,5.55
2022-10-17T04:47:04.593Z,6.60
2022-10-17T04:52:06.033Z,6.07
2022-10-17T04:57:07.503Z,7.88
2022-10-17T05:02:09.019Z,6.45
2022-10-17T05:07:10.599Z,8.35
2022-10-17T05:12:12.061Z,5.50
2022-10-17T05:17:13.466Z,6.35
2022-10-17T05:22:15.113Z,5.22
2022-10-17T05:27:16.561Z,9.82
2022-10-17T05:32:18.013Z,4.82
2022-10-17T05:37:19.444Z,6.30
2022-10-17T05:42:21.173Z,8.73
2022-10-17T05:47:22.721Z,8.32
2022-10-17T05:52:24.164Z,4.82
2022-10-17T05:57:26.559Z,4.70
2022-10-17T06:02:28.342Z,4.45
2022-10-17T06:07:30.156Z,3.70
2022-10-17T06:12:31.836Z,4.10
2022-10-17T06:17:33.514Z,3.03
2022-10-17T06:22:34.971Z,7.25
2022-10-17T06:27:36.430Z,10.63
2022-10-17T06:32:37.848Z,6.28
2022-10-17T06:37:39.577Z,6.35
2022-10-17T06:42:41.736Z,8.32
2022-10-17T06:47:43.225Z,8.13
2022-10-17T06:52:44.648Z,3.22
2022-10-17T06:57:46.120Z,4.93
2022-10-17T07:02:47.537Z,5.35
2022-10-17T07:07:51.749Z,6.93
2022-10-17T07:17:54.708Z,4.22
2022-10-17T07:22:56.219Z,9.10
2022-10-17T07:27:57.707Z,2.90
2022-10-17T07:32:59.132Z,4.28
2022-10-17T07:38:00.558Z,3.85
2022-10-17T07:43:01.999Z,5.28
2022-10-17T07:48:03.605Z,6.45
2022-10-17T07:53:05.057Z,2.58
2022-10-17T07:58:08.941Z,5.75
2022-10-17T08:03:11.439Z,4.90
2022-10-17T08:08:12.960Z,4.90
2022-10-17T08:13:14.383Z,2.65
2022-10-17T08:18:15.989Z,5.57
2022-10-17T08:23:17.447Z,5.70
2022-10-17T08:28:18.868Z,5.38
2022-10-17T08:33:20.318Z,8.10
2022-10-17T08:38:23.286Z,5.70
2022-10-17T08:43:37.735Z,6.35
2022-10-17T08:48:46.591Z,3.72
2022-10-17T08:53:53.787Z,5.72
2022-10-17T08:58:55.298Z,4.65
2022-10-17T09:04:16.092Z,5.32
2022-10-17T09:09:28.004Z,5.13
2022-10-17T09:15:02.998Z,4.50
2022-10-17T09:20:19.765Z,7.53
2022-10-17T09:25:21.763Z,5.28
2022-10-17T09:30:46.192Z,9.82
2022-10-17T09:35:49.945Z,3.10
2022-10-17T09:40:57.215Z,4.17
2022-10-17T09:46:15.970Z,6.35
2022-10-17T09:51:25.762Z,6.00
2022-10-17T09:56:27.775Z,6.25
2022-10-17T10:01:31.426Z,5.95
2022-10-17T10:06:32.928Z,3.55
2022-10-17T10:11:49.871Z,10.20
2022-10-17T10:16:53.710Z,5.68
2022-10-17T10:21:58.691Z,4.38
2022-10-17T10:27:03.173Z,4.60
2022-10-17T10:32:16.385Z,5.18
2022-10-17T10:37:30.757Z,8.90
2022-10-17T10:42:39.470Z,3.65
2022-10-17T10:47:51.704Z,5.15
2022-10-17T10:53:34.211Z,4.88
2022-10-17T10:58:48.541Z,8.77
2022-10-17T11:04:04.942Z,6.00
2022-10-17T11:09:32.974Z,4.78
2022-10-17T11:14:47.935Z,5.55
2022-10-17T11:20:15.201Z,9.75
2022-10-17T11:25:40.281Z,7.32
2022-10-17T11:31:13.226Z,4.40
2022-10-17T11:36:17.984Z,6.53
2022-10-17T11:41:29.825Z,8.20
2022-10-17T11:46:36.056Z,5.32
2022-10-17T11:52:04.239Z,9.98
2022-10-17T11:57:19.872Z,5.88
2022-10-17T12:02:32.999Z,6.88
2022-10-17T12:07:56.354Z,11.67
2022-10-17T12:12:57.906Z,8.98
2022-10-17T12:18:04.051Z,7.63
2022-10-17T12:23:11.600Z,7.70
2022-10-17T12:28:16.812Z,7.13
2022-10-17T12:33:27.828Z,6.47
2022-10-17T12:38:29.321Z,7.65
2022-10-17T12:43:30.781Z,9.68
2022-10-17T12:48:38.475Z,8.07
2022-10-17T12:53:43.506Z,12.38
2022-10-17T12:58:48.673Z,11.85
2022-10-17T13:03:52.482Z,13.52
2022-10-17T13:09:20.744Z,14.60
2022-10-17T13:14:24.489Z,12.93
2022-10-17T13:19:30.169Z,11.98
2022-10-17T13:24:32.948Z,11.75
2022-10-17T13:29:34.577Z,10.35
2022-10-17T13:34:36.146Z,10.77
2022-10-17T13:39:55.248Z,10.00
2022-10-17T13:44:59.118Z,13.30
2022-10-17T13:50:00.991Z,12.45
2022-10-17T13:55:14.208Z,10.10
2022-10-17T14:00:28.221Z,13.90
2022-10-17T14:05:29.742Z,13.23
2022-10-17T14:10:32.866Z,16.23
2022-10-17T14:15:36.629Z,11.93
2022-10-17T14:21:19.732Z,13.05
2022-10-17T14:26:12.314Z,12.60
2022-10-17T14:31:25.414Z,14.75
2022-10-17T14:36:51.262Z,16.60
2022-10-17T14:41:53.795Z,16.13
2022-10-17T14:47:38.190Z,14.85
2022-10-17T14:52:31.541Z,15.68
2022-10-17T14:57:33.214Z,12.52
2022-10-17T15:02:34.869Z,12.20
2022-10-17T15:07:36.298Z,9.82
2022-10-17T15:12:37.713Z,9.02
2022-10-17T15:17:39.339Z,10.48
2022-10-17T15:22:40.808Z,10.57
2022-10-17T15:27:42.300Z,7.82
2022-10-17T15:32:43.773Z,7.85
2022-10-17T15:37:46.776Z,7.90
2022-10-17T15:42:48.393Z,8.65
2022-10-17T15:47:52.792Z,7.53
2022-10-17T15:52:54.244Z,5.30
2022-10-17T15:57:55.824Z,8.70
2022-10-17T16:02:57.325Z,8.13
2022-10-17T16:07:58.759Z,10.27
2022-10-17T16:13:00.175Z,7.10
2022-10-17T16:18:04.285Z,5.40
2022-10-17T16:23:08.419Z,8.60
2022-10-17T16:28:11.784Z,7.35
2022-10-17T16:33:13.377Z,10.33
2022-10-17T16:38:16.064Z,8.35
2022-10-17T16:43:17.538Z,10.50
2022-10-17T16:48:26.162Z,8.82
2022-10-17T16:53:30.934Z,13.45
2022-10-17T16:58:32.402Z,8.32
2022-10-17T17:03:37.967Z,10.40
2022-10-17T17:08:40.281Z,10.70
2022-10-17T17:13:41.772Z,11.32
2022-10-17T17:18:43.445Z,10.75
2022-10-17T17:23:44.961Z,8.45
2022-10-17T17:28:47.335Z,9.18
2022-10-17T17:33:49.191Z,10.75
2022-10-17T17:38:53.435Z,9.00
2022-10-17T17:48:57.190Z,7.60
2022-10-17T17:53:58.669Z,12.98
2022-10-17T17:59:02.359Z,9.93
2022-10-17T18:04:05.750Z,8.63
2022-10-17T18:09:07.980Z,14.53
2022-10-17T18:14:12.569Z,10.00
2022-10-17T18:19:14.068Z,9.70
2022-10-17T18:24:15.652Z,7.25
2022-10-17T18:29:17.206Z,10.98
2022-10-17T18:34:18.660Z,10.95
2022-10-17T18:39:20.516Z,12.82
2022-10-17T18:44:21.947Z,8.90
2022-10-17T18:49:23.493Z,9.30
2022-10-17T18:54:24.904Z,10.50
2022-10-17T18:59:26.433Z,10.02
2022-10-17T19:04:27.950Z,9.88
2022-10-17T19:09:29.574Z,9.00
2022-10-17T19:14:31.345Z,11.43
2022-10-17T19:19:33.342Z,14.52
2022-10-17T19:24:35.132Z,12.45
2022-10-17T19:29:36.547Z,14.32
2022-10-17T19:34:38.201Z,12.50
2022-10-17T19:39:39.692Z,13.40
2022-10-17T19:44:41.095Z,13.73
2022-10-17T19:49:46.485Z,13.35
2022-10-17T19:54:50.531Z,14.10
2022-10-17T19:59:53.742Z,16.77
2022-10-17T20:05:13.932Z,17.15
2022-10-17T20:10:18.922Z,14.30
2022-10-17T20:15:20.421Z,14.60
2022-10-17T20:20:22.117Z,16.50
2022-10-17T20:25:23.579Z,12.82
2022-10-17T20:30:25.115Z,17.45
2022-10-17T20:35:26.580Z,10.82
2022-10-17T20:40:35.847Z,12.07
2022-10-17T20:45:50.714Z,12.30
2022-10-17T20:50:53.733Z,14.15
2022-10-17T20:56:17.050Z,10.40
2022-10-17T21:01:18.721Z,18.02
2022-10-17T21:06:21.073Z,12.15
2022-10-17T21:11:24.875Z,9.80
2022-10-17T21:16:27.535Z,11.13
2022-10-17T21:21:40.893Z,15.40
2022-10-17T21:26:43.897Z,10.40
2022-10-17T21:31:45.416Z,10.98
2022-10-17T21:36:48.070Z,13.90
2022-10-17T21:41:49.504Z,12.23
2022-10-17T21:46:51.982Z,10.45
2022-10-17T21:51:53.656Z,16.35
2022-10-17T21:56:55.059Z,11.45
2022-10-17T22:01:56.498Z,11.73
2022-10-17T22:06:57.989Z,13.10
2022-10-17T22:11:59.462Z,17.38
2022-10-17T22:17:01.568Z,14.55
2022-10-17T22:22:02.996Z,13.55
2022-10-17T22:27:04.708Z,19.13
2022-10-17T22:32:06.156Z,17.13
2022-10-17T22:37:07.624Z,19.00
2022-10-17T22:42:09.140Z,16.90
2022-10-17T22:47:10.607Z,14.00
2022-10-17T22:52:12.112Z,21.00
2022-10-17T22:57:13.541Z,13.88
2022-10-17T23:02:14.959Z,16.80
2022-10-17T23:07:16.417Z,21.90
2022-10-17T23:12:17.977Z,15.27
2022-10-17T23:17:19.373Z,15.30
2022-10-17T23:22:20.783Z,22.67
2022-10-17T23:27:22.249Z,20.55
2022-10-17T23:32:23.708Z,29.63
2022-10-17T23:37:25.161Z,22.13
2022-10-17T23:42:27.116Z,22.55
2022-10-17T23:47:28.865Z,17.80
2022-10-17T23:52:31.011Z,18.52
2022-10-17T23:57:32.824Z,14.23
